Terminal Aerodrome Forecast
Issued by NWS Jackson, MS

Home | Current Version | Previous Version | Text Only | Print | Product List | Glossary On
Versions: 1 2 3 4 5 6 7 8 9 10 11 12 13 14 15 16
000
FTUS44 KMEG 261138
TAFTUP
TAF
KTUP 261138Z 2612/2712 VRB03KT P6SM SKC
     FM261400 19005KT P6SM FEW150 BKN250
     FM261800 21010G16KT P6SM SCT050 BKN120
     FM270000 28008KT P6SM SCT040=

USA.gov is the U.S. government's official web portal to all federal, state and local government web resources and services.